createdAt,value
2024-02-22T00:00:53.868Z,127.41
2024-02-22T00:01:53.891Z,128.99
2024-02-22T00:02:53.853Z,128.70
2024-02-22T00:03:53.851Z,129.38
2024-02-22T00:04:54.077Z,129.88
2024-02-22T00:05:53.905Z,128.19
2024-02-22T00:06:53.975Z,127.72
2024-02-22T00:07:53.913Z,129.95
2024-02-22T00:08:53.939Z,130.04
2024-02-22T00:09:53.858Z,127.60
2024-02-22T00:10:54.020Z,129.18
2024-02-22T00:11:53.947Z,128.73
2024-02-22T00:12:53.860Z,129.02
2024-02-22T00:13:53.921Z,128.08
2024-02-22T00:14:53.877Z,128.27
2024-02-22T00:15:53.892Z,127.71
2024-02-22T00:16:54.043Z,129.18
2024-02-22T00:17:53.986Z,127.97
2024-02-22T00:18:53.884Z,129.43
2024-02-22T00:19:54.525Z,128.69
2024-02-22T00:20:53.916Z,128.55
2024-02-22T00:21:53.903Z,128.87
2024-02-22T00:22:53.962Z,130.28
2024-02-22T00:23:53.988Z,128.50
2024-02-22T00:24:54.055Z,129.11
2024-02-22T00:25:54.155Z,128.49
2024-02-22T00:26:54.166Z,130.06
2024-02-22T00:27:54.210Z,128.80
2024-02-22T00:28:54.358Z,128.54
2024-02-22T00:29:54.318Z,128.70
2024-02-22T00:30:54.413Z,128.83
2024-02-22T00:31:54.484Z,129.69
2024-02-22T00:32:54.507Z,127.90
2024-02-22T00:33:54.586Z,129.52
2024-02-22T00:34:54.658Z,128.96
2024-02-22T00:35:54.649Z,130.16
2024-02-22T00:36:54.709Z,129.09
2024-02-22T00:37:54.822Z,129.13
2024-02-22T00:38:54.836Z,128.16
2024-02-22T00:39:54.903Z,129.83
2024-02-22T00:40:55.033Z,129.47
2024-02-22T00:41:55.017Z,129.31
2024-02-22T00:42:55.084Z,128.19
2024-02-22T00:43:55.215Z,127.43
2024-02-22T00:44:55.175Z,129.57
2024-02-22T00:45:55.252Z,128.46
2024-02-22T00:46:55.504Z,127.11
2024-02-22T00:47:55.436Z,128.88
2024-02-22T00:48:55.444Z,129.29
2024-02-22T00:49:55.533Z,129.39
2024-02-22T00:50:55.606Z,129.11
2024-02-22T00:51:55.599Z,128.64
2024-02-22T00:52:55.737Z,129.29
2024-02-22T00:53:55.737Z,129.54
2024-02-22T00:54:55.808Z,128.79
2024-02-22T00:55:55.889Z,128.25
2024-02-22T00:56:55.909Z,129.86
2024-02-22T00:57:56.002Z,129.01
2024-02-22T00:58:56.074Z,129.92
2024-02-22T00:59:56.123Z,129.72
2024-02-22T01:00:56.233Z,128.45
2024-02-22T01:01:56.266Z,129.44
2024-02-22T01:02:56.310Z,128.37
2024-02-22T01:03:56.445Z,128.61
2024-02-22T01:04:56.457Z,128.71
2024-02-22T01:05:56.551Z,129.51
2024-02-22T01:06:56.585Z,129.55
2024-02-22T01:07:56.737Z,128.82
2024-02-22T01:08:56.713Z,128.87
2024-02-22T01:09:56.772Z,129.25
2024-02-22T01:10:56.877Z,130.11
2024-02-22T01:11:56.958Z,129.46
2024-02-22T01:12:56.959Z,129.16
2024-02-22T01:13:57.044Z,129.54
2024-02-22T01:14:57.066Z,128.38
2024-02-22T01:15:57.201Z,128.86
2024-02-22T01:16:57.267Z,128.64
2024-02-22T01:17:57.268Z,129.25
2024-02-22T01:18:57.382Z,128.57
2024-02-22T01:19:57.553Z,128.84
2024-02-22T01:20:57.482Z,128.93
2024-02-22T01:21:57.552Z,129.65
2024-02-22T01:22:57.653Z,129.14
2024-02-22T01:23:57.666Z,128.84
2024-02-22T01:24:57.714Z,127.70
2024-02-22T01:25:57.860Z,129.37
2024-02-22T01:26:57.850Z,130.59
2024-02-22T01:27:57.909Z,130.69
2024-02-22T01:28:58.060Z,129.71
2024-02-22T01:29:58.063Z,130.08
2024-02-22T01:30:58.146Z,129.43
2024-02-22T01:31:58.228Z,130.34
2024-02-22T01:32:58.330Z,129.60
2024-02-22T01:33:58.356Z,128.61
2024-02-22T01:34:58.404Z,129.28
2024-02-22T01:35:58.450Z,128.31
2024-02-22T01:36:58.558Z,129.76
2024-02-22T01:37:58.613Z,129.52
2024-02-22T01:38:58.671Z,129.44
2024-02-22T01:39:58.724Z,129.69
2024-02-22T01:40:59.169Z,128.80
2024-02-22T01:41:58.862Z,129.15
2024-02-22T01:42:58.916Z,129.64
2024-02-22T01:43:59.061Z,129.18
2024-02-22T01:44:59.044Z,129.52
2024-02-22T01:45:59.112Z,129.34
2024-02-22T01:46:59.219Z,129.46
2024-02-22T01:47:59.304Z,129.68
2024-02-22T01:48:59.372Z,129.09
2024-02-22T01:49:59.428Z,128.45
2024-02-22T01:50:59.446Z,128.60
2024-02-22T01:51:59.602Z,129.72
2024-02-22T01:52:59.631Z,130.37
2024-02-22T01:53:59.670Z,130.47
2024-02-22T01:54:59.776Z,127.95
2024-02-22T01:55:59.999Z,128.24
2024-02-22T01:56:59.851Z,129.36
2024-02-22T01:57:59.950Z,129.62
2024-02-22T01:59:00.052Z,129.09
2024-02-22T02:00:00.058Z,129.80
2024-02-22T02:01:00.153Z,129.18
2024-02-22T02:02:00.323Z,129.68
2024-02-22T02:03:00.242Z,130.12
2024-02-22T02:04:00.367Z,129.06
2024-02-22T02:05:00.441Z,129.64
2024-02-22T02:06:00.469Z,129.55
2024-02-22T02:07:00.523Z,128.88
2024-02-22T02:08:00.597Z,129.37
2024-02-22T02:09:00.626Z,130.07
2024-02-22T02:10:00.695Z,129.80
2024-02-22T02:11:00.887Z,129.93
2024-02-22T02:12:00.893Z,130.96
2024-02-22T02:13:00.861Z,129.89
2024-02-22T02:14:00.995Z,129.17
2024-02-22T02:15:01.003Z,129.84
2024-02-22T02:16:01.076Z,131.12
2024-02-22T02:17:01.156Z,130.17
2024-02-22T02:18:01.216Z,129.91
2024-02-22T02:19:01.313Z,129.09
2024-02-22T02:20:01.306Z,129.22
2024-02-22T02:21:01.385Z,130.54
2024-02-22T02:22:01.419Z,129.99
2024-02-22T02:23:01.552Z,129.68
2024-02-22T02:24:01.550Z,129.51
2024-02-22T02:25:01.636Z,129.30
2024-02-22T02:26:01.748Z,129.54
2024-02-22T02:27:01.733Z,131.57
2024-02-22T02:28:01.819Z,130.12
2024-02-22T02:29:01.943Z,129.66
2024-02-22T02:30:01.913Z,129.46
2024-02-22T02:31:01.985Z,130.33
2024-02-22T02:32:02.121Z,129.52
2024-02-22T02:33:02.163Z,128.09
2024-02-22T02:34:02.256Z,129.64
2024-02-22T02:35:02.322Z,129.81
2024-02-22T02:36:02.321Z,130.08
2024-02-22T02:37:02.370Z,130.54
2024-02-22T02:38:02.472Z,130.45
2024-02-22T02:39:02.493Z,129.28
2024-02-22T02:40:02.589Z,129.60
2024-02-22T02:41:02.694Z,128.71
2024-02-22T02:42:02.728Z,130.89
2024-02-22T02:43:02.742Z,129.78
2024-02-22T02:44:02.932Z,129.57
2024-02-22T02:45:03.018Z,129.77
2024-02-22T02:46:03.026Z,130.86
2024-02-22T02:47:03.127Z,130.33
2024-02-22T02:48:03.227Z,130.98
2024-02-22T02:49:03.260Z,129.00
2024-02-22T02:50:03.279Z,129.58
2024-02-22T02:51:03.274Z,130.84
2024-02-22T02:52:03.346Z,128.81
2024-02-22T02:53:03.505Z,130.58
2024-02-22T02:54:03.472Z,130.12
2024-02-22T02:55:03.522Z,129.92
2024-02-22T02:56:03.613Z,130.29
2024-02-22T02:57:03.657Z,129.73
2024-02-22T02:58:03.719Z,129.82
2024-02-22T02:59:03.815Z,129.73
2024-02-22T03:00:03.852Z,130.57
2024-02-22T03:01:03.943Z,129.45
2024-02-22T03:02:04.021Z,130.33
2024-02-22T03:03:04.116Z,131.06
2024-02-22T03:04:04.125Z,130.09
2024-02-22T03:05:04.221Z,129.42
2024-02-22T03:06:04.400Z,130.70
2024-02-22T03:07:04.293Z,129.93
2024-02-22T03:08:04.368Z,128.92
2024-02-22T03:09:04.417Z,130.00
2024-02-22T03:10:04.477Z,129.00
2024-02-22T03:11:04.765Z,130.28
2024-02-22T03:12:04.706Z,130.33
2024-02-22T03:13:04.676Z,130.33
2024-02-22T03:14:04.870Z,129.67
2024-02-22T03:15:04.810Z,130.14
2024-02-22T03:16:04.871Z,128.88
2024-02-22T03:17:05.005Z,129.86
2024-02-22T03:18:05.081Z,129.23
2024-02-22T03:19:05.101Z,129.77
2024-02-22T03:20:05.184Z,128.90
2024-02-22T03:21:05.202Z,129.86
2024-02-22T03:22:05.261Z,129.84
2024-02-22T03:23:05.399Z,129.61
2024-02-22T03:24:05.391Z,129.30
2024-02-22T03:25:05.467Z,130.25
2024-02-22T03:26:05.542Z,128.11
2024-02-22T03:27:05.589Z,131.27
2024-02-22T03:28:05.650Z,130.34
2024-02-22T03:29:05.722Z,130.54
2024-02-22T03:30:05.776Z,128.94
2024-02-22T03:31:05.861Z,129.99
2024-02-22T03:32:05.910Z,130.93
2024-02-22T03:33:06.013Z,129.09
2024-02-22T03:34:06.081Z,132.13
2024-02-22T03:35:06.275Z,129.75
2024-02-22T03:36:06.150Z,129.18
2024-02-22T03:37:06.245Z,131.05
2024-02-22T03:38:06.313Z,129.64
2024-02-22T03:39:06.412Z,130.18
2024-02-22T03:40:06.441Z,130.64
2024-02-22T03:41:06.523Z,130.25
2024-02-22T03:42:06.566Z,130.59
2024-02-22T03:43:06.644Z,129.79
2024-02-22T03:44:06.730Z,130.58
2024-02-22T03:45:06.756Z,129.29
2024-02-22T03:46:06.830Z,129.64
2024-02-22T03:47:06.942Z,130.06
2024-02-22T03:48:07.078Z,131.14
2024-02-22T03:49:07.069Z,130.93
2024-02-22T03:50:07.229Z,129.66
2024-02-22T03:51:07.169Z,130.85
2024-02-22T03:52:07.246Z,130.77
2024-02-22T03:53:07.349Z,128.76
2024-02-22T03:54:07.359Z,130.11
2024-02-22T03:55:07.459Z,129.87
2024-02-22T03:56:07.548Z,131.36
2024-02-22T03:57:07.577Z,130.85
2024-02-22T03:58:08.096Z,131.38
2024-02-22T03:59:07.833Z,131.11
2024-02-22T04:00:07.906Z,130.26
2024-02-22T04:01:07.933Z,131.11
2024-02-22T04:02:07.927Z,130.22
2024-02-22T04:03:07.970Z,130.50
2024-02-22T04:04:08.084Z,129.79
2024-02-22T04:05:08.143Z,130.29
2024-02-22T04:06:08.195Z,130.83
2024-02-22T04:07:08.221Z,130.00
2024-02-22T04:08:08.297Z,129.84
2024-02-22T04:09:08.355Z,130.27
2024-02-22T04:10:08.398Z,130.48
2024-02-22T04:11:08.561Z,129.38
2024-02-22T04:12:08.591Z,128.96
2024-02-22T04:13:08.601Z,130.13
2024-02-22T04:14:08.759Z,130.44
2024-02-22T04:15:08.724Z,129.58
2024-02-22T04:16:08.773Z,129.20
2024-02-22T04:17:08.909Z,128.69
2024-02-22T04:18:09.011Z,130.18
2024-02-22T04:19:19.937Z,50.00
2024-02-22T04:20:16.290Z,50.00
2024-02-22T04:21:16.198Z,50.00
2024-02-22T04:22:16.194Z,50.00
2024-02-22T04:23:16.274Z,50.00
2024-02-22T04:24:16.197Z,50.00
2024-02-22T04:25:16.238Z,51.25
2024-02-22T04:26:16.270Z,52.37
2024-02-22T04:27:16.202Z,51.54
2024-02-22T04:28:16.209Z,50.58
2024-02-22T04:29:16.368Z,50.77
2024-02-22T04:30:16.210Z,52.67
2024-02-22T04:31:16.208Z,51.80
2024-02-22T04:32:16.262Z,50.64
2024-02-22T04:33:16.318Z,52.58
2024-02-22T04:34:16.270Z,52.01
2024-02-22T04:35:16.375Z,53.45
2024-02-22T04:36:16.233Z,53.79
2024-02-22T04:37:16.232Z,52.49
2024-02-22T04:38:16.349Z,51.83
2024-02-22T04:39:16.222Z,51.83
2024-02-22T04:40:16.242Z,52.10
2024-02-22T04:41:16.267Z,54.21
2024-02-22T04:42:16.226Z,53.61
2024-02-22T04:43:16.229Z,53.05
2024-02-22T04:44:16.294Z,52.98
2024-02-22T04:45:16.298Z,53.86
2024-02-22T04:46:16.352Z,50.78
2024-02-22T04:47:16.475Z,51.99
2024-02-22T04:48:16.551Z,50.67
2024-02-22T04:49:16.582Z,50.69
2024-02-22T04:50:16.662Z,51.50
2024-02-22T04:51:16.659Z,54.68
2024-02-22T04:52:16.657Z,53.64
2024-02-22T04:53:16.842Z,52.30
2024-02-22T04:54:16.782Z,54.04
2024-02-22T04:55:16.830Z,52.51
2024-02-22T04:56:16.956Z,54.06
2024-02-22T04:57:16.954Z,51.59
2024-02-22T04:58:16.989Z,51.01
2024-02-22T04:59:17.076Z,54.08
2024-02-22T05:00:17.112Z,54.05
2024-02-22T05:01:17.190Z,50.62
2024-02-22T05:02:17.259Z,52.04
2024-02-22T05:03:17.319Z,52.30
2024-02-22T05:04:17.370Z,53.62
2024-02-22T05:05:17.409Z,51.93
2024-02-22T05:06:17.471Z,50.71
2024-02-22T05:07:17.521Z,53.80
2024-02-22T05:08:17.668Z,53.54
2024-02-22T05:09:17.617Z,51.68
2024-02-22T05:10:17.662Z,53.72
2024-02-22T05:11:17.773Z,52.40
2024-02-22T05:12:17.756Z,53.15
2024-02-22T05:13:17.801Z,54.79
2024-02-22T05:14:17.966Z,52.70
2024-02-22T05:15:17.922Z,54.05
2024-02-22T05:16:17.974Z,53.88
2024-02-22T05:17:18.019Z,51.78
2024-02-22T05:18:18.102Z,52.37
2024-02-22T05:19:18.138Z,53.12
2024-02-22T05:20:18.232Z,53.21
2024-02-22T05:21:18.208Z,54.51
2024-02-22T05:22:18.242Z,54.47
2024-02-22T05:23:18.317Z,53.79
2024-02-22T05:24:18.338Z,52.83
2024-02-22T05:25:18.411Z,53.67
2024-02-22T05:26:18.517Z,54.27
2024-02-22T05:27:18.510Z,53.50
2024-02-22T05:28:18.542Z,54.92
2024-02-22T05:29:18.645Z,55.59
2024-02-22T05:30:18.637Z,55.24
2024-02-22T05:31:18.674Z,52.84
2024-02-22T05:32:18.854Z,53.50
2024-02-22T05:33:18.871Z,52.67
2024-02-22T05:34:18.876Z,54.37
2024-02-22T05:35:18.935Z,52.13
2024-02-22T05:36:18.873Z,54.42
2024-02-22T05:37:18.930Z,54.52
2024-02-22T05:38:19.040Z,55.07
2024-02-22T05:39:19.018Z,54.99
2024-02-22T05:40:19.055Z,51.96
2024-02-22T05:41:19.306Z,52.47
2024-02-22T05:42:19.153Z,54.02
2024-02-22T05:43:19.196Z,54.06
2024-02-22T05:44:19.364Z,53.70
2024-02-22T05:45:19.289Z,53.94
2024-02-22T05:46:19.356Z,52.60
2024-02-22T05:47:19.435Z,56.75
2024-02-22T05:48:19.573Z,55.42
2024-02-22T05:49:19.545Z,53.24
2024-02-22T05:50:19.652Z,53.82
2024-02-22T05:51:19.596Z,53.46
2024-02-22T05:52:19.846Z,53.62
2024-02-22T05:53:19.746Z,52.74
2024-02-22T05:54:19.736Z,53.45
2024-02-22T05:55:19.787Z,52.61
2024-02-22T05:56:19.867Z,54.21
2024-02-22T05:57:19.882Z,55.04
2024-02-22T05:58:19.948Z,53.62
2024-02-22T05:59:20.046Z,53.29
2024-02-22T06:00:20.028Z,53.54
2024-02-22T06:01:20.176Z,55.73
2024-02-22T06:02:20.166Z,54.59
2024-02-22T06:03:20.169Z,54.55
2024-02-22T06:04:20.252Z,54.37
2024-02-22T06:05:20.342Z,55.31
2024-02-22T06:06:20.342Z,53.11
2024-02-22T06:07:20.408Z,55.77
2024-02-22T06:08:20.470Z,53.45
2024-02-22T06:09:20.438Z,55.10
2024-02-22T06:10:20.494Z,54.77
2024-02-22T06:11:20.714Z,54.45
2024-02-22T06:12:20.641Z,55.17
2024-02-22T06:13:20.627Z,53.32
2024-02-22T06:14:20.726Z,53.54
2024-02-22T06:15:20.729Z,53.46
2024-02-22T06:16:20.798Z,53.04
2024-02-22T06:17:20.913Z,54.84
2024-02-22T06:18:20.985Z,53.25
2024-02-22T06:19:20.999Z,54.35
2024-02-22T06:20:21.084Z,53.81
2024-02-22T06:21:21.014Z,52.95
2024-02-22T06:22:21.364Z,52.88
2024-02-22T06:23:21.180Z,54.12
2024-02-22T06:24:21.120Z,53.74
2024-02-22T06:25:21.265Z,53.79
2024-02-22T06:26:21.331Z,55.07
2024-02-22T06:27:21.265Z,54.45
2024-02-22T06:28:21.318Z,54.12
2024-02-22T06:29:21.470Z,54.86
2024-02-22T06:30:21.409Z,54.99
2024-02-22T06:31:21.904Z,55.73
2024-02-22T06:32:21.523Z,55.59
2024-02-22T06:33:21.616Z,52.92
2024-02-22T06:34:21.643Z,50.77
2024-02-22T06:35:21.775Z,51.62
2024-02-22T06:36:21.794Z,50.69
2024-02-22T06:37:23.069Z,52.30
2024-02-22T06:38:21.804Z,52.04
2024-02-22T06:39:21.764Z,54.58
2024-02-22T06:40:21.750Z,55.98
2024-02-22T06:41:21.853Z,58.32
2024-02-22T06:42:21.893Z,58.26
2024-02-22T06:43:21.752Z,62.82
2024-02-22T06:44:21.894Z,62.92
2024-02-22T06:45:21.753Z,65.48
2024-02-22T06:46:21.796Z,66.76
2024-02-22T06:47:21.759Z,70.82
2024-02-22T06:48:21.900Z,71.47
2024-02-22T06:49:21.815Z,74.31
2024-02-22T06:50:21.877Z,77.83
2024-02-22T06:51:21.770Z,77.91
2024-02-22T06:52:21.851Z,83.38
2024-02-22T06:53:21.795Z,88.21
2024-02-22T06:54:21.773Z,91.41
2024-02-22T06:55:21.770Z,94.20
2024-02-22T06:56:21.835Z,103.48
2024-02-22T06:57:21.765Z,142.45
2024-02-22T06:58:21.773Z,141.04
2024-02-22T06:59:22.080Z,138.20
2024-02-22T07:00:21.838Z,136.16
2024-02-22T07:01:21.837Z,139.43
2024-02-22T07:02:21.855Z,141.56
2024-02-22T07:03:21.841Z,148.07
2024-02-22T07:04:21.931Z,152.36
2024-02-22T07:05:21.870Z,155.99
2024-02-22T07:06:21.903Z,160.93
2024-02-22T07:07:21.805Z,164.21
2024-02-22T07:08:21.871Z,167.94
2024-02-22T07:09:21.801Z,168.14
2024-02-22T07:10:21.885Z,174.66
2024-02-22T07:11:22.053Z,178.58
2024-02-22T07:12:21.831Z,181.80
2024-02-22T07:13:22.016Z,186.62
2024-02-22T07:14:21.860Z,190.18
2024-02-22T07:15:21.827Z,194.68
2024-02-22T07:16:21.849Z,196.43
2024-02-22T07:17:23.349Z,200.00
2024-02-22T07:18:21.940Z,198.36
2024-02-22T07:19:21.933Z,200.00
2024-02-22T07:20:21.980Z,200.00
2024-02-22T07:21:22.040Z,200.00
2024-02-22T07:22:22.875Z,198.86
2024-02-22T07:23:22.182Z,200.09
2024-02-22T07:24:22.138Z,199.66
2024-02-22T07:25:22.361Z,198.85
2024-02-22T07:26:22.256Z,200.00
2024-02-22T07:27:22.306Z,198.95
2024-02-22T07:28:22.339Z,199.16
2024-02-22T07:29:22.444Z,199.19
2024-02-22T07:30:22.420Z,200.00
2024-02-22T07:31:22.484Z,199.50
2024-02-22T07:32:22.668Z,200.00
2024-02-22T07:33:22.705Z,199.52
2024-02-22T07:34:22.763Z,198.52
2024-02-22T07:35:22.706Z,198.64
2024-02-22T07:36:22.716Z,199.55
2024-02-22T07:37:22.771Z,199.84
2024-02-22T07:38:22.840Z,199.70
2024-02-22T07:39:22.837Z,198.29
2024-02-22T07:40:22.843Z,197.96
2024-02-22T07:41:22.889Z,189.86
2024-02-22T07:42:23.402Z,187.59
2024-02-22T07:43:22.966Z,184.59
2024-02-22T07:44:24.945Z,177.78
2024-02-22T07:45:23.030Z,168.52
2024-02-22T07:46:23.076Z,169.41
2024-02-22T07:47:23.500Z,168.11
2024-02-22T07:48:23.283Z,168.19
2024-02-22T07:49:23.285Z,166.71
2024-02-22T07:50:23.345Z,163.30
2024-02-22T07:51:23.377Z,157.84
2024-02-22T07:52:23.907Z,153.76
2024-02-22T07:53:23.521Z,152.17
2024-02-22T07:54:23.549Z,148.47
2024-02-22T07:55:23.604Z,145.83
2024-02-22T07:56:23.704Z,143.86
2024-02-22T07:57:23.696Z,140.40
2024-02-22T07:58:23.695Z,136.97
2024-02-22T07:59:23.795Z,135.25
2024-02-22T08:00:23.777Z,133.67
2024-02-22T08:01:23.788Z,132.51
2024-02-22T08:02:23.785Z,129.91
2024-02-22T08:03:23.735Z,126.89
2024-02-22T08:04:23.805Z,123.39
2024-02-22T08:05:23.926Z,122.44
2024-02-22T08:06:23.812Z,118.78
2024-02-22T08:07:23.782Z,116.38
2024-02-22T08:08:23.837Z,111.28
2024-02-22T08:09:23.807Z,111.60
2024-02-22T08:10:23.835Z,109.20
2024-02-22T08:11:23.939Z,108.41
2024-02-22T08:12:24.129Z,106.08
2024-02-22T08:13:23.890Z,102.67
2024-02-22T08:14:23.928Z,100.10
2024-02-22T08:15:23.932Z,101.42
2024-02-22T08:16:24.011Z,93.79
2024-02-22T08:17:24.008Z,95.08
2024-02-22T08:18:24.104Z,90.29
2024-02-22T08:19:24.064Z,90.59
2024-02-22T08:20:24.296Z,88.01
2024-02-22T08:21:24.162Z,86.50
2024-02-22T08:22:24.416Z,87.19
2024-02-22T08:23:24.153Z,85.00
2024-02-22T08:24:24.150Z,84.71
2024-02-22T08:25:25.907Z,79.36
2024-02-22T08:26:24.438Z,78.79
2024-02-22T08:27:24.412Z,80.00
2024-02-22T08:28:24.431Z,73.05
2024-02-22T08:29:24.203Z,71.73
2024-02-22T08:30:24.197Z,71.55
2024-02-22T08:31:24.173Z,72.27
2024-02-22T08:32:24.491Z,67.46
2024-02-22T08:33:24.297Z,66.23
2024-02-22T08:34:24.303Z,64.69
2024-02-22T08:35:24.304Z,66.25
2024-02-22T08:36:24.182Z,64.92
2024-02-22T08:37:24.192Z,64.45
2024-02-22T08:38:24.506Z,65.00
2024-02-22T08:39:24.269Z,64.60
2024-02-22T08:40:34.762Z,63.83
2024-02-22T08:41:25.239Z,63.96
2024-02-22T08:42:24.194Z,64.30
2024-02-22T08:43:24.413Z,65.11
2024-02-22T08:44:24.268Z,66.31
2024-02-22T08:45:24.228Z,67.89
2024-02-22T08:46:24.744Z,71.58
2024-02-22T08:47:32.551Z,50.00
2024-02-22T08:48:32.576Z,50.00
2024-02-22T08:49:32.469Z,50.00
2024-02-22T08:50:32.419Z,50.00
2024-02-22T08:51:32.335Z,50.00
2024-02-22T08:52:32.416Z,51.39
2024-02-22T08:53:32.390Z,53.94
2024-02-22T08:54:32.342Z,57.17
2024-02-22T08:55:32.446Z,61.78
2024-02-22T08:56:32.447Z,62.34
2024-02-22T08:57:39.337Z,60.55
2024-02-22T08:58:33.482Z,60.78
2024-02-22T08:59:32.454Z,61.19
2024-02-22T09:00:32.422Z,62.35
2024-02-22T09:01:32.395Z,65.03
2024-02-22T09:02:32.337Z,63.81
2024-02-22T09:03:32.459Z,66.53
2024-02-22T09:04:32.438Z,67.61
2024-02-22T09:05:32.418Z,70.11
2024-02-22T09:06:32.479Z,73.94
2024-02-22T09:07:32.448Z,72.50
2024-02-22T09:08:32.400Z,75.05
2024-02-22T09:09:32.346Z,72.86
2024-02-22T09:10:32.348Z,70.04
2024-02-22T09:11:32.454Z,69.12
2024-02-22T09:12:32.476Z,71.56
2024-02-22T09:13:32.548Z,73.44
2024-02-22T09:14:32.444Z,77.31
2024-02-22T09:15:32.462Z,83.65
2024-02-22T09:16:32.551Z,84.15
2024-02-22T09:17:32.538Z,85.12
2024-02-22T09:18:32.583Z,85.32
2024-02-22T09:19:32.596Z,86.94
2024-02-22T09:20:32.597Z,88.48
2024-02-22T09:21:32.570Z,84.99
2024-02-22T09:22:33.068Z,84.58
2024-02-22T09:23:32.746Z,86.46
2024-02-22T09:24:32.746Z,84.50
2024-02-22T09:25:32.927Z,82.95
2024-02-22T09:26:32.845Z,76.46
2024-02-22T09:27:32.879Z,74.27
2024-02-22T09:28:33.478Z,74.71
2024-02-22T09:29:33.452Z,74.95
2024-02-22T09:30:33.016Z,76.80
2024-02-22T09:31:33.125Z,72.69
2024-02-22T09:32:33.471Z,70.38
2024-02-22T09:33:33.232Z,67.39
2024-02-22T09:34:33.359Z,66.50
2024-02-22T09:35:33.334Z,64.76
2024-02-22T09:36:33.378Z,62.45
2024-02-22T09:37:33.553Z,55.84
2024-02-22T09:38:33.475Z,52.78
2024-02-22T09:39:33.982Z,51.19
2024-02-22T09:40:33.422Z,50.71
2024-02-22T09:41:33.431Z,50.80
2024-02-22T09:42:33.453Z,50.44
2024-02-22T09:43:33.482Z,50.35
2024-02-22T09:44:33.479Z,50.12
2024-02-22T09:45:33.513Z,50.63
2024-02-22T09:46:33.615Z,50.90
2024-02-22T09:47:34.132Z,51.03
2024-02-22T09:48:33.871Z,52.27
2024-02-22T09:49:33.894Z,54.04
2024-02-22T09:50:33.947Z,55.57
2024-02-22T09:51:33.910Z,55.30
2024-02-22T09:52:33.998Z,55.65
2024-02-22T09:53:34.133Z,56.77
2024-02-22T09:54:34.119Z,52.93
2024-02-22T09:55:34.192Z,50.76
2024-02-22T09:56:34.184Z,54.34
2024-02-22T09:57:34.227Z,50.00
2024-02-22T09:58:34.336Z,48.45
2024-02-22T09:59:34.317Z,52.30
2024-02-22T10:00:34.357Z,57.20
2024-02-22T10:01:34.445Z,56.73
2024-02-22T10:02:34.457Z,61.72
2024-02-22T10:03:34.485Z,61.57
2024-02-22T10:04:34.521Z,61.45
2024-02-22T10:05:34.611Z,66.30
2024-02-22T10:06:34.772Z,72.25
2024-02-22T10:07:34.716Z,77.94
2024-02-22T10:08:34.713Z,82.69
2024-02-22T10:09:34.721Z,89.76
2024-02-22T10:10:34.825Z,110.56
2024-02-22T10:11:35.007Z,116.34
2024-02-22T10:12:36.323Z,125.58
2024-02-22T10:13:35.238Z,130.22
2024-02-22T10:14:35.113Z,133.31
2024-02-22T10:15:35.152Z,135.94
2024-02-22T10:16:35.260Z,140.38
2024-02-22T10:17:35.348Z,143.00
2024-02-22T10:18:35.405Z,145.30
2024-02-22T10:19:35.472Z,149.32
2024-02-22T10:20:35.805Z,152.54
2024-02-22T10:21:35.515Z,155.02
2024-02-22T10:22:35.621Z,158.52
2024-02-22T10:23:35.627Z,164.07
2024-02-22T10:24:35.686Z,163.77
2024-02-22T10:25:35.942Z,165.86
2024-02-22T10:26:35.896Z,170.82
2024-02-22T10:27:35.898Z,172.15
2024-02-22T10:28:35.969Z,174.44
2024-02-22T10:29:35.986Z,179.14
2024-02-22T10:30:36.077Z,180.44
2024-02-22T10:31:36.175Z,190.54
2024-02-22T10:32:36.278Z,194.76
2024-02-22T10:33:36.385Z,200.00
2024-02-22T10:34:36.405Z,199.79
2024-02-22T10:35:36.444Z,198.93
2024-02-22T10:36:36.447Z,199.08
2024-02-22T10:37:36.579Z,198.47
2024-02-22T10:38:36.470Z,198.47
2024-02-22T10:39:36.525Z,198.43
2024-02-22T10:40:36.892Z,197.21
2024-02-22T10:41:36.572Z,198.00
2024-02-22T10:42:37.002Z,198.71
2024-02-22T10:43:36.805Z,197.75
2024-02-22T10:44:36.805Z,200.00
2024-02-22T10:45:36.767Z,198.18
2024-02-22T10:46:36.979Z,197.41
2024-02-22T10:47:37.051Z,200.00
2024-02-22T10:48:37.009Z,197.34
2024-02-22T10:49:36.943Z,200.00
2024-02-22T10:50:37.003Z,200.25
2024-02-22T10:51:37.072Z,200.00
2024-02-22T10:52:37.515Z,199.51
2024-02-22T10:53:37.037Z,199.92
2024-02-22T10:54:37.094Z,182.84
2024-02-22T10:55:37.189Z,177.94
2024-02-22T10:56:37.291Z,163.75
2024-02-22T10:57:37.989Z,167.37
2024-02-22T10:58:37.365Z,170.57
2024-02-22T10:59:37.433Z,132.55
2024-02-22T11:00:37.432Z,104.70
2024-02-22T11:01:37.434Z,84.57
2024-02-22T11:02:37.458Z,54.70
2024-02-22T11:03:37.519Z,55.88
2024-02-22T11:04:37.564Z,57.46
2024-02-22T11:05:37.559Z,50.00
2024-02-22T11:06:37.586Z,52.48
2024-02-22T11:07:37.621Z,49.29
2024-02-22T11:08:37.598Z,48.48
2024-02-22T11:09:37.643Z,51.51
2024-02-22T11:10:37.684Z,55.88
2024-02-22T11:11:37.881Z,49.00
2024-02-22T11:12:37.776Z,54.04
2024-02-22T11:13:38.022Z,46.57
2024-02-22T11:14:37.870Z,38.46
2024-02-22T11:15:37.914Z,36.22
2024-02-22T11:16:38.015Z,14.96
2024-02-22T11:17:38.039Z,9.52
2024-02-22T11:18:38.101Z,7.51
2024-02-22T11:19:38.182Z,13.23
2024-02-22T11:20:38.151Z,10.87
2024-02-22T11:21:38.193Z,26.64
2024-02-22T11:22:38.352Z,35.14
2024-02-22T11:23:39.092Z,51.23
2024-02-22T11:24:38.377Z,58.81
2024-02-22T11:25:38.427Z,67.52
2024-02-22T11:26:38.464Z,71.99
2024-02-22T11:27:38.530Z,59.46
2024-02-22T11:28:38.553Z,62.50
2024-02-22T11:29:38.559Z,64.28
2024-02-22T11:30:38.625Z,71.88
2024-02-22T11:31:38.698Z,80.35
2024-02-22T11:32:38.802Z,77.44
2024-02-22T11:33:39.586Z,71.20
2024-02-22T11:34:38.931Z,64.67
2024-02-22T11:35:38.991Z,48.75
2024-02-22T11:36:38.956Z,57.67
2024-02-22T11:37:39.049Z,56.62
2024-02-22T11:38:39.064Z,50.00
2024-02-22T11:39:39.099Z,50.09
2024-02-22T11:40:39.402Z,56.33
2024-02-22T11:41:39.206Z,47.67
2024-02-22T11:42:39.299Z,40.39
2024-02-22T11:43:39.356Z,56.65
2024-02-22T11:44:39.392Z,51.41
2024-02-22T11:45:39.412Z,49.89
2024-02-22T11:46:39.577Z,49.05
2024-02-22T11:47:39.584Z,51.65
2024-02-22T11:48:39.792Z,50.38
2024-02-22T11:49:39.670Z,53.53
2024-02-22T11:50:39.648Z,50.18
2024-02-22T11:51:39.699Z,52.99
2024-02-22T11:52:40.027Z,52.73
2024-02-22T11:53:40.425Z,52.11
2024-02-22T11:54:39.844Z,50.21
2024-02-22T11:55:39.951Z,56.62
2024-02-22T11:56:39.984Z,55.28
2024-02-22T11:57:40.042Z,58.60
2024-02-22T11:58:40.153Z,62.89
2024-02-22T11:59:40.120Z,66.58
2024-02-22T12:00:40.322Z,63.67
2024-02-22T12:01:40.210Z,66.87
2024-02-22T12:02:40.224Z,55.87
2024-02-22T12:03:40.220Z,61.41
2024-02-22T12:04:40.339Z,60.50
2024-02-22T12:05:40.396Z,59.77
2024-02-22T12:06:40.484Z,55.08
2024-02-22T12:07:40.701Z,51.47
2024-02-22T12:08:40.491Z,55.23
2024-02-22T12:09:40.565Z,55.83
2024-02-22T12:10:40.728Z,60.78
2024-02-22T12:11:40.753Z,67.76
2024-02-22T12:12:40.998Z,72.77
2024-02-22T12:13:40.878Z,68.71
2024-02-22T12:14:40.879Z,62.95
2024-02-22T12:15:40.962Z,68.65
2024-02-22T12:16:41.035Z,70.99
2024-02-22T12:17:41.191Z,79.47
2024-02-22T12:18:41.258Z,84.47
2024-02-22T12:19:41.114Z,90.91
2024-02-22T12:20:41.200Z,96.00
2024-02-22T12:21:41.305Z,100.55
2024-02-22T12:22:41.197Z,104.08
2024-02-22T12:23:41.177Z,108.41
2024-02-22T12:24:41.183Z,110.19
2024-02-22T12:25:41.263Z,111.85
2024-02-22T12:26:41.279Z,112.86
2024-02-22T12:27:41.548Z,114.84
2024-02-22T12:28:41.566Z,115.96
2024-02-22T12:29:41.471Z,117.12
2024-02-22T12:30:41.568Z,118.56
2024-02-22T12:31:41.662Z,119.69
2024-02-22T12:32:41.707Z,120.83
2024-02-22T12:33:42.089Z,122.32
2024-02-22T12:34:41.858Z,121.38
2024-02-22T12:35:41.949Z,122.58
2024-02-22T12:36:41.985Z,124.69
2024-02-22T12:37:42.044Z,122.53
2024-02-22T12:38:41.991Z,115.81
2024-02-22T12:39:42.200Z,117.69
2024-02-22T12:40:42.090Z,119.75